sensor_id;sensor_type;location;lat;lon;timestamp;temperature;humidity
62464;SHT31;48512;48.552;9.380;2023-07-28T00:01:19;17.74;82.09
62464;SHT31;48512;48.552;9.380;2023-07-28T00:03:45;17.70;82.20
62464;SHT31;48512;48.552;9.380;2023-07-28T00:06:11;17.53;82.80
62464;SHT31;48512;48.552;9.380;2023-07-28T00:08:37;17.62;82.62
62464;SHT31;48512;48.552;9.380;2023-07-28T00:11:09;17.54;82.71
62464;SHT31;48512;48.552;9.380;2023-07-28T00:13:35;17.49;83.04
62464;SHT31;48512;48.552;9.380;2023-07-28T00:16:01;17.65;82.62
62464;SHT31;48512;48.552;9.380;2023-07-28T00:18:27;17.52;82.88
62464;SHT31;48512;48.552;9.380;2023-07-28T00:20:53;17.45;83.36
62464;SHT31;48512;48.552;9.380;2023-07-28T00:23:19;17.45;83.43
62464;SHT31;48512;48.552;9.380;2023-07-28T00:25:45;17.25;83.96
62464;SHT31;48512;48.552;9.380;2023-07-28T00:28:12;17.46;83.17
62464;SHT31;48512;48.552;9.380;2023-07-28T00:30:38;17.16;84.27
62464;SHT31;48512;48.552;9.380;2023-07-28T00:33:04;17.05;84.60
62464;SHT31;48512;48.552;9.380;2023-07-28T00:35:30;17.03;84.59
62464;SHT31;48512;48.552;9.380;2023-07-28T00:37:56;16.88;85.09
62464;SHT31;48512;48.552;9.380;2023-07-28T00:40:23;16.83;85.45
62464;SHT31;48512;48.552;9.380;2023-07-28T00:42:49;16.77;85.64
62464;SHT31;48512;48.552;9.380;2023-07-28T00:45:16;16.83;85.50
62464;SHT31;48512;48.552;9.380;2023-07-28T00:47:42;16.76;85.78
62464;SHT31;48512;48.552;9.380;2023-07-28T00:50:09;16.80;85.67
62464;SHT31;48512;48.552;9.380;2023-07-28T00:52:36;16.60;86.32
62464;SHT31;48512;48.552;9.380;2023-07-28T00:55:03;16.57;86.35
62464;SHT31;48512;48.552;9.380;2023-07-28T00:57:29;16.60;86.27
62464;SHT31;48512;48.552;9.380;2023-07-28T00:59:55;16.52;86.53
62464;SHT31;48512;48.552;9.380;2023-07-28T01:02:22;16.42;87.09
62464;SHT31;48512;48.552;9.380;2023-07-28T01:04:48;16.36;87.24
62464;SHT31;48512;48.552;9.380;2023-07-28T01:07:34;16.36;87.26
62464;SHT31;48512;48.552;9.380;2023-07-28T01:10:07;16.43;87.14
62464;SHT31;48512;48.552;9.380;2023-07-28T01:12:34;16.32;87.45
62464;SHT31;48512;48.552;9.380;2023-07-28T01:15:00;16.33;87.52
62464;SHT31;48512;48.552;9.380;2023-07-28T01:17:26;16.43;87.13
62464;SHT31;48512;48.552;9.380;2023-07-28T01:19:53;16.30;87.80
62464;SHT31;48512;48.552;9.380;2023-07-28T01:27:56;16.38;87.56
62464;SHT31;48512;48.552;9.380;2023-07-28T01:30:26;16.40;87.42
62464;SHT31;48512;48.552;9.380;2023-07-28T01:32:57;16.47;87.43
62464;SHT31;48512;48.552;9.380;2023-07-28T01:35:24;16.49;87.25
62464;SHT31;48512;48.552;9.380;2023-07-28T01:37:51;16.67;86.53
62464;SHT31;48512;48.552;9.380;2023-07-28T01:40:20;16.50;87.26
62464;SHT31;48512;48.552;9.380;2023-07-28T01:42:46;16.55;87.09
62464;SHT31;48512;48.552;9.380;2023-07-28T01:45:12;16.53;87.10
62464;SHT31;48512;48.552;9.380;2023-07-28T01:47:38;16.64;86.54
62464;SHT31;48512;48.552;9.380;2023-07-28T01:50:05;16.53;86.92
62464;SHT31;48512;48.552;9.380;2023-07-28T01:52:31;16.56;87.13
62464;SHT31;48512;48.552;9.380;2023-07-28T01:54:57;16.60;86.60
62464;SHT31;48512;48.552;9.380;2023-07-28T01:57:23;16.49;87.35
62464;SHT31;48512;48.552;9.380;2023-07-28T01:59:53;16.45;87.36
62464;SHT31;48512;48.552;9.380;2023-07-28T02:02:20;16.52;87.19
62464;SHT31;48512;48.552;9.380;2023-07-28T02:04:46;16.57;86.92
62464;SHT31;48512;48.552;9.380;2023-07-28T02:07:12;16.63;86.54
62464;SHT31;48512;48.552;9.380;2023-07-28T02:09:38;16.63;86.62
62464;SHT31;48512;48.552;9.380;2023-07-28T02:12:04;16.63;86.68
62464;SHT31;48512;48.552;9.380;2023-07-28T02:14:30;16.60;86.69
62464;SHT31;48512;48.552;9.380;2023-07-28T02:16:56;16.47;87.12
62464;SHT31;48512;48.552;9.380;2023-07-28T02:19:24;16.47;87.18
62464;SHT31;48512;48.552;9.380;2023-07-28T02:21:50;16.38;87.52
62464;SHT31;48512;48.552;9.380;2023-07-28T02:24:16;16.26;87.95
62464;SHT31;48512;48.552;9.380;2023-07-28T02:26:43;16.21;87.99
62464;SHT31;48512;48.552;9.380;2023-07-28T02:29:09;16.30;87.96
62464;SHT31;48512;48.552;9.380;2023-07-28T02:31:35;16.30;87.75
62464;SHT31;48512;48.552;9.380;2023-07-28T02:34:01;16.13;88.23
62464;SHT31;48512;48.552;9.380;2023-07-28T02:36:27;16.12;88.54
62464;SHT31;48512;48.552;9.380;2023-07-28T02:38:53;16.19;88.14
62464;SHT31;48512;48.552;9.380;2023-07-28T02:41:20;16.19;88.15
62464;SHT31;48512;48.552;9.380;2023-07-28T02:43:46;16.30;87.71
62464;SHT31;48512;48.552;9.380;2023-07-28T02:46:12;16.46;87.13
62464;SHT31;48512;48.552;9.380;2023-07-28T02:48:39;16.92;85.56
62464;SHT31;48512;48.552;9.380;2023-07-28T02:51:05;16.77;86.02
62464;SHT31;48512;48.552;9.380;2023-07-28T02:53:31;16.57;86.65
62464;SHT31;48512;48.552;9.380;2023-07-28T02:55:57;16.57;86.52
62464;SHT31;48512;48.552;9.380;2023-07-28T02:58:23;16.45;87.06
62464;SHT31;48512;48.552;9.380;2023-07-28T03:00:51;16.40;87.32
62464;SHT31;48512;48.552;9.380;2023-07-28T03:03:21;16.39;87.49
62464;SHT31;48512;48.552;9.380;2023-07-28T03:05:52;16.50;86.88
62464;SHT31;48512;48.552;9.380;2023-07-28T03:08:24;16.52;87.06
62464;SHT31;48512;48.552;9.380;2023-07-28T03:10:56;16.43;87.46
62464;SHT31;48512;48.552;9.380;2023-07-28T03:13:23;16.43;87.45
62464;SHT31;48512;48.552;9.380;2023-07-28T03:15:49;16.43;87.56
62464;SHT31;48512;48.552;9.380;2023-07-28T03:18:16;16.46;87.41
62464;SHT31;48512;48.552;9.380;2023-07-28T03:20:42;16.61;86.95
62464;SHT31;48512;48.552;9.380;2023-07-28T03:23:08;16.78;86.42
62464;SHT31;48512;48.552;9.380;2023-07-28T03:25:34;16.73;86.79
62464;SHT31;48512;48.552;9.380;2023-07-28T03:28:00;16.77;86.59
62464;SHT31;48512;48.552;9.380;2023-07-28T03:30:27;16.84;86.67
62464;SHT31;48512;48.552;9.380;2023-07-28T03:32:53;17.10;85.62
62464;SHT31;48512;48.552;9.380;2023-07-28T03:35:19;17.42;84.38
62464;SHT31;48512;48.552;9.380;2023-07-28T03:37:53;17.62;83.43
62464;SHT31;48512;48.552;9.380;2023-07-28T03:40:19;17.94;82.36
62464;SHT31;48512;48.552;9.380;2023-07-28T03:42:50;17.90;82.70
62464;SHT31;48512;48.552;9.380;2023-07-28T03:45:16;18.00;82.71
62464;SHT31;48512;48.552;9.380;2023-07-28T03:47:42;18.14;82.03
62464;SHT31;48512;48.552;9.380;2023-07-28T03:50:08;18.04;82.23
62464;SHT31;48512;48.552;9.380;2023-07-28T03:52:34;18.11;81.93
62464;SHT31;48512;48.552;9.380;2023-07-28T03:55:01;18.15;81.71
62464;SHT31;48512;48.552;9.380;2023-07-28T03:57:27;18.44;80.55
62464;SHT31;48512;48.552;9.380;2023-07-28T03:59:53;18.34;81.07
62464;SHT31;48512;48.552;9.380;2023-07-28T04:02:19;18.38;81.07
62464;SHT31;48512;48.552;9.380;2023-07-28T04:04:46;18.44;80.55
62464;SHT31;48512;48.552;9.380;2023-07-28T04:07:12;18.39;81.00
62464;SHT31;48512;48.552;9.380;2023-07-28T04:09:38;18.39;81.07
62464;SHT31;48512;48.552;9.380;2023-07-28T04:12:05;18.52;79.93
62464;SHT31;48512;48.552;9.380;2023-07-28T04:14:31;18.60;79.79
62464;SHT31;48512;48.552;9.380;2023-07-28T04:16:57;18.56;79.83
62464;SHT31;48512;48.552;9.380;2023-07-28T04:19:23;18.53;79.86
62464;SHT31;48512;48.552;9.380;2023-07-28T04:21:50;18.48;80.27
62464;SHT31;48512;48.552;9.380;2023-07-28T04:24:16;18.75;79.12
62464;SHT31;48512;48.552;9.380;2023-07-28T04:26:46;18.82;79.02
62464;SHT31;48512;48.552;9.380;2023-07-28T04:29:15;18.99;78.10
62464;SHT31;48512;48.552;9.380;2023-07-28T04:31:41;18.92;78.43
62464;SHT31;48512;48.552;9.380;2023-07-28T04:34:11;18.97;78.37
62464;SHT31;48512;48.552;9.380;2023-07-28T04:36:58;18.94;78.92
62464;SHT31;48512;48.552;9.380;2023-07-28T04:39:28;18.87;79.14
62464;SHT31;48512;48.552;9.380;2023-07-28T04:41:54;19.07;78.32
62464;SHT31;48512;48.552;9.380;2023-07-28T04:44:21;19.03;78.28
62464;SHT31;48512;48.552;9.380;2023-07-28T04:46:48;19.00;78.53
62464;SHT31;48512;48.552;9.380;2023-07-28T04:49:15;18.97;79.20
62464;SHT31;48512;48.552;9.380;2023-07-28T04:52:00;19.04;78.73
62464;SHT31;48512;48.552;9.380;2023-07-28T04:54:46;19.20;77.62
62464;SHT31;48512;48.552;9.380;2023-07-28T04:57:12;19.23;78.27
62464;SHT31;48512;48.552;9.380;2023-07-28T04:59:38;19.06;78.62
62464;SHT31;48512;48.552;9.380;2023-07-28T05:02:05;19.03;78.88
62464;SHT31;48512;48.552;9.380;2023-07-28T05:04:31;19.10;78.75
62464;SHT31;48512;48.552;9.380;2023-07-28T05:06:57;19.15;78.21
62464;SHT31;48512;48.552;9.380;2023-07-28T05:09:23;19.36;76.93
62464;SHT31;48512;48.552;9.380;2023-07-28T05:11:49;19.31;77.12
62464;SHT31;48512;48.552;9.380;2023-07-28T05:14:16;19.20;77.70
62464;SHT31;48512;48.552;9.380;2023-07-28T05:16:43;19.32;77.46
62464;SHT31;48512;48.552;9.380;2023-07-28T05:19:09;19.31;77.62
62464;SHT31;48512;48.552;9.380;2023-07-28T05:21:47;19.18;78.93
62464;SHT31;48512;48.552;9.380;2023-07-28T05:24:15;19.34;76.92
62464;SHT31;48512;48.552;9.380;2023-07-28T05:26:42;19.35;76.42
62464;SHT31;48512;48.552;9.380;2023-07-28T05:29:08;19.32;76.55
62464;SHT31;48512;48.552;9.380;2023-07-28T05:31:34;19.27;76.89
62464;SHT31;48512;48.552;9.380;2023-07-28T05:34:03;19.25;77.97
62464;SHT31;48512;48.552;9.380;2023-07-28T05:36:29;19.23;78.66
62464;SHT31;48512;48.552;9.380;2023-07-28T05:38:59;19.20;79.35
62464;SHT31;48512;48.552;9.380;2023-07-28T05:41:34;19.28;78.58
62464;SHT31;48512;48.552;9.380;2023-07-28T05:44:00;19.14;79.47
62464;SHT31;48512;48.552;9.380;2023-07-28T05:46:26;19.20;79.36
62464;SHT31;48512;48.552;9.380;2023-07-28T05:48:54;19.23;80.07
62464;SHT31;48512;48.552;9.380;2023-07-28T05:51:21;19.18;79.75
62464;SHT31;48512;48.552;9.380;2023-07-28T05:53:48;19.13;79.76
62464;SHT31;48512;48.552;9.380;2023-07-28T05:56:17;19.08;79.78
62464;SHT31;48512;48.552;9.380;2023-07-28T05:58:46;19.06;79.66
62464;SHT31;48512;48.552;9.380;2023-07-28T06:01:12;19.00;79.77
62464;SHT31;48512;48.552;9.380;2023-07-28T06:04:10;18.99;81.34
62464;SHT31;48512;48.552;9.380;2023-07-28T06:06:44;18.97;81.41
62464;SHT31;48512;48.552;9.380;2023-07-28T06:09:13;18.94;81.82
62464;SHT31;48512;48.552;9.380;2023-07-28T06:11:39;19.10;82.01
62464;SHT31;48512;48.552;9.380;2023-07-28T06:14:06;19.03;82.04
62464;SHT31;48512;48.552;9.380;2023-07-28T06:16:34;19.10;82.15
62464;SHT31;48512;48.552;9.380;2023-07-28T06:19:00;19.02;83.74
62464;SHT31;48512;48.552;9.380;2023-07-28T06:21:27;19.04;84.23
62464;SHT31;48512;48.552;9.380;2023-07-28T06:23:53;19.08;84.97
62464;SHT31;48512;48.552;9.380;2023-07-28T06:26:19;19.17;84.01
62464;SHT31;48512;48.552;9.380;2023-07-28T06:28:46;19.27;84.58
62464;SHT31;48512;48.552;9.380;2023-07-28T06:31:12;19.24;85.24
62464;SHT31;48512;48.552;9.380;2023-07-28T06:33:38;19.68;81.68
62464;SHT31;48512;48.552;9.380;2023-07-28T06:36:05;19.47;83.97
62464;SHT31;48512;48.552;9.380;2023-07-28T06:38:31;19.36;85.65
62464;SHT31;48512;48.552;9.380;2023-07-28T06:40:58;19.47;81.62
62464;SHT31;48512;48.552;9.380;2023-07-28T06:43:24;19.39;84.18
62464;SHT31;48512;48.552;9.380;2023-07-28T06:45:53;19.50;81.84
62464;SHT31;48512;48.552;9.380;2023-07-28T06:48:19;19.54;81.40
62464;SHT31;48512;48.552;9.380;2023-07-28T06:50:45;19.54;81.64
62464;SHT31;48512;48.552;9.380;2023-07-28T06:53:11;19.54;84.07
62464;SHT31;48512;48.552;9.380;2023-07-28T06:55:38;19.55;82.84
62464;SHT31;48512;48.552;9.380;2023-07-28T06:58:05;19.54;83.19
62464;SHT31;48512;48.552;9.380;2023-07-28T07:00:32;19.54;83.97
62464;SHT31;48512;48.552;9.380;2023-07-28T07:03:00;19.63;84.07
62464;SHT31;48512;48.552;9.380;2023-07-28T07:05:26;19.65;83.54
62464;SHT31;48512;48.552;9.380;2023-07-28T07:07:52;19.65;83.83
62464;SHT31;48512;48.552;9.380;2023-07-28T07:10:20;19.62;83.54
62464;SHT31;48512;48.552;9.380;2023-07-28T07:12:47;19.62;83.15
62464;SHT31;48512;48.552;9.380;2023-07-28T07:15:13;19.62;83.07
62464;SHT31;48512;48.552;9.380;2023-07-28T07:17:39;19.59;83.67
62464;SHT31;48512;48.552;9.380;2023-07-28T07:20:06;19.65;82.63
62464;SHT31;48512;48.552;9.380;2023-07-28T07:22:33;19.85;82.92
62464;SHT31;48512;48.552;9.380;2023-07-28T07:24:59;19.82;82.42
62464;SHT31;48512;48.552;9.380;2023-07-28T07:27:25;19.89;81.68
62464;SHT31;48512;48.552;9.380;2023-07-28T07:29:52;19.90;81.41
62464;SHT31;48512;48.552;9.380;2023-07-28T07:32:18;20.09;79.31
62464;SHT31;48512;48.552;9.380;2023-07-28T07:34:44;20.10;78.36
62464;SHT31;48512;48.552;9.380;2023-07-28T07:37:10;20.19;77.55
62464;SHT31;48512;48.552;9.380;2023-07-28T07:39:36;20.26;76.33
62464;SHT31;48512;48.552;9.380;2023-07-28T07:42:02;20.19;76.82
62464;SHT31;48512;48.552;9.380;2023-07-28T07:44:29;20.26;76.69
62464;SHT31;48512;48.552;9.380;2023-07-28T07:46:55;20.49;75.37
62464;SHT31;48512;48.552;9.380;2023-07-28T07:49:22;20.37;76.80
62464;SHT31;48512;48.552;9.380;2023-07-28T07:51:49;20.40;78.15
62464;SHT31;48512;48.552;9.380;2023-07-28T07:54:15;20.38;78.71
62464;SHT31;48512;48.552;9.380;2023-07-28T07:56:44;20.47;77.12
62464;SHT31;48512;48.552;9.380;2023-07-28T07:59:12;20.55;76.18
62464;SHT31;48512;48.552;9.380;2023-07-28T08:01:39;20.64;74.95
62464;SHT31;48512;48.552;9.380;2023-07-28T08:04:05;20.54;75.56
62464;SHT31;48512;48.552;9.380;2023-07-28T08:06:31;20.40;77.36
62464;SHT31;48512;48.552;9.380;2023-07-28T08:08:57;20.45;76.85
62464;SHT31;48512;48.552;9.380;2023-07-28T08:11:25;20.41;77.03
62464;SHT31;48512;48.552;9.380;2023-07-28T08:13:51;20.33;77.10
62464;SHT31;48512;48.552;9.380;2023-07-28T08:16:17;20.33;77.52
62464;SHT31;48512;48.552;9.380;2023-07-28T08:18:43;20.51;76.45
62464;SHT31;48512;48.552;9.380;2023-07-28T08:21:09;20.63;75.81
62464;SHT31;48512;48.552;9.380;2023-07-28T08:23:36;20.63;75.05
62464;SHT31;48512;48.552;9.380;2023-07-28T08:26:02;20.55;75.70
62464;SHT31;48512;48.552;9.380;2023-07-28T08:28:28;20.85;75.06
62464;SHT31;48512;48.552;9.380;2023-07-28T08:30:55;21.14;74.34
62464;SHT31;48512;48.552;9.380;2023-07-28T08:33:25;21.34;74.05
62464;SHT31;48512;48.552;9.380;2023-07-28T08:35:51;21.58;74.12
62464;SHT31;48512;48.552;9.380;2023-07-28T08:38:17;21.64;73.48
62464;SHT31;48512;48.552;9.380;2023-07-28T08:40:44;21.78;72.75
62464;SHT31;48512;48.552;9.380;2023-07-28T08:43:10;22.06;73.20
62464;SHT31;48512;48.552;9.380;2023-07-28T08:45:36;22.20;72.76
62464;SHT31;48512;48.552;9.380;2023-07-28T08:48:04;22.13;72.60
62464;SHT31;48512;48.552;9.380;2023-07-28T08:50:30;22.19;72.80
62464;SHT31;48512;48.552;9.380;2023-07-28T08:52:56;22.33;72.67
62464;SHT31;48512;48.552;9.380;2023-07-28T08:55:22;22.33;72.27
62464;SHT31;48512;48.552;9.380;2023-07-28T08:57:49;22.40;71.62
62464;SHT31;48512;48.552;9.380;2023-07-28T09:00:15;22.46;72.16
62464;SHT31;48512;48.552;9.380;2023-07-28T09:02:44;22.57;71.73
62464;SHT31;48512;48.552;9.380;2023-07-28T09:05:17;22.61;71.53
62464;SHT31;48512;48.552;9.380;2023-07-28T09:07:45;22.73;72.13
62464;SHT31;48512;48.552;9.380;2023-07-28T09:10:13;23.12;70.81
62464;SHT31;48512;48.552;9.380;2023-07-28T09:12:47;23.30;70.36
62464;SHT31;48512;48.552;9.380;2023-07-28T09:15:14;23.60;69.34
62464;SHT31;48512;48.552;9.380;2023-07-28T09:17:43;23.67;70.03
62464;SHT31;48512;48.552;9.380;2023-07-28T09:20:14;23.73;70.37
62464;SHT31;48512;48.552;9.380;2023-07-28T09:22:44;23.93;69.14
62464;SHT31;48512;48.552;9.380;2023-07-28T09:25:15;24.11;68.17
62464;SHT31;48512;48.552;9.380;2023-07-28T09:27:51;24.44;67.83
62464;SHT31;48512;48.552;9.380;2023-07-28T09:30:19;24.62;66.66
62464;SHT31;48512;48.552;9.380;2023-07-28T09:32:48;24.58;66.04
62464;SHT31;48512;48.552;9.380;2023-07-28T09:35:14;24.52;66.21
62464;SHT31;48512;48.552;9.380;2023-07-28T09:37:43;24.62;66.90
62464;SHT31;48512;48.552;9.380;2023-07-28T09:40:12;25.02;65.14
62464;SHT31;48512;48.552;9.380;2023-07-28T09:42:42;24.93;65.67
62464;SHT31;48512;48.552;9.380;2023-07-28T09:45:09;24.96;66.11
62464;SHT31;48512;48.552;9.380;2023-07-28T09:47:37;24.56;65.82
62464;SHT31;48512;48.552;9.380;2023-07-28T09:50:06;24.72;66.14
62464;SHT31;48512;48.552;9.380;2023-07-28T09:52:42;24.86;65.33
62464;SHT31;48512;48.552;9.380;2023-07-28T09:55:10;25.41;63.37
62464;SHT31;48512;48.552;9.380;2023-07-28T09:57:41;25.18;65.15
62464;SHT31;48512;48.552;9.380;2023-07-28T10:00:12;25.38;63.93
62464;SHT31;48512;48.552;9.380;2023-07-28T10:02:40;25.59;63.29
62464;SHT31;48512;48.552;9.380;2023-07-28T10:05:07;25.45;62.82
62464;SHT31;48512;48.552;9.380;2023-07-28T10:07:39;25.76;61.83
62464;SHT31;48512;48.552;9.380;2023-07-28T10:10:07;26.13;63.16
62464;SHT31;48512;48.552;9.380;2023-07-28T10:12:52;26.26;63.28
62464;SHT31;48512;48.552;9.380;2023-07-28T10:15:28;26.14;62.11
62464;SHT31;48512;48.552;9.380;2023-07-28T10:17:55;26.31;61.18
62464;SHT31;48512;48.552;9.380;2023-07-28T10:20:33;26.61;59.32
62464;SHT31;48512;48.552;9.380;2023-07-28T10:25:39;26.79;59.12
62464;SHT31;48512;48.552;9.380;2023-07-28T10:28:24;26.72;58.01
62464;SHT31;48512;48.552;9.380;2023-07-28T10:30:52;26.43;58.79
62464;SHT31;48512;48.552;9.380;2023-07-28T10:36:15;26.26;58.66
62464;SHT31;48512;48.552;9.380;2023-07-28T10:38:41;26.13;59.19
62464;SHT31;48512;48.552;9.380;2023-07-28T10:41:16;26.45;59.24
62464;SHT31;48512;48.552;9.380;2023-07-28T10:43:44;26.48;59.54
62464;SHT31;48512;48.552;9.380;2023-07-28T10:46:15;26.37;59.50
62464;SHT31;48512;48.552;9.380;2023-07-28T10:48:43;26.29;60.05
62464;SHT31;48512;48.552;9.380;2023-07-28T10:51:11;26.39;59.84
62464;SHT31;48512;48.552;9.380;2023-07-28T10:53:38;26.58;59.11
62464;SHT31;48512;48.552;9.380;2023-07-28T10:56:05;26.58;59.28
62464;SHT31;48512;48.552;9.380;2023-07-28T10:58:34;26.62;59.51
62464;SHT31;48512;48.552;9.380;2023-07-28T11:01:02;26.40;59.92
62464;SHT31;48512;48.552;9.380;2023-07-28T11:03:28;26.51;59.32
62464;SHT31;48512;48.552;9.380;2023-07-28T11:05:55;26.60;58.94
62464;SHT31;48512;48.552;9.380;2023-07-28T11:08:22;26.51;58.91
62464;SHT31;48512;48.552;9.380;2023-07-28T11:10:49;26.57;58.69
62464;SHT31;48512;48.552;9.380;2023-07-28T11:13:15;26.45;58.97
62464;SHT31;48512;48.552;9.380;2023-07-28T11:15:41;26.40;58.61
62464;SHT31;48512;48.552;9.380;2023-07-28T11:18:08;26.29;59.06
62464;SHT31;48512;48.552;9.380;2023-07-28T11:20:35;26.58;58.37
62464;SHT31;48512;48.552;9.380;2023-07-28T11:23:03;26.55;58.38
62464;SHT31;48512;48.552;9.380;2023-07-28T11:25:31;26.29;59.00
62464;SHT31;48512;48.552;9.380;2023-07-28T11:28:00;26.48;58.91
62464;SHT31;48512;48.552;9.380;2023-07-28T11:30:26;26.57;59.64
62464;SHT31;48512;48.552;9.380;2023-07-28T11:32:53;26.64;59.57
62464;SHT31;48512;48.552;9.380;2023-07-28T11:35:21;26.50;59.29
62464;SHT31;48512;48.552;9.380;2023-07-28T11:37:50;26.37;59.56
62464;SHT31;48512;48.552;9.380;2023-07-28T11:40:18;26.06;60.52
62464;SHT31;48512;48.552;9.380;2023-07-28T11:42:47;26.02;60.61
62464;SHT31;48512;48.552;9.380;2023-07-28T11:45:16;25.97;60.71
62464;SHT31;48512;48.552;9.380;2023-07-28T11:50:23;25.75;65.76
62464;SHT31;48512;48.552;9.380;2023-07-28T11:52:50;25.44;65.39
62464;SHT31;48512;48.552;9.380;2023-07-28T11:55:16;25.20;64.75
62464;SHT31;48512;48.552;9.380;2023-07-28T11:57:43;25.17;63.99
62464;SHT31;48512;48.552;9.380;2023-07-28T12:00:09;24.73;66.24
62464;SHT31;48512;48.552;9.380;2023-07-28T12:02:38;24.59;66.17
62464;SHT31;48512;48.552;9.380;2023-07-28T12:05:12;24.20;63.04
62464;SHT31;48512;48.552;9.380;2023-07-28T12:07:38;23.97;65.65
62464;SHT31;48512;48.552;9.380;2023-07-28T12:10:06;23.83;66.55
62464;SHT31;48512;48.552;9.380;2023-07-28T12:12:43;23.67;67.70
62464;SHT31;48512;48.552;9.380;2023-07-28T12:18:07;23.37;69.75
62464;SHT31;48512;48.552;9.380;2023-07-28T12:20:44;23.32;71.14
62464;SHT31;48512;48.552;9.380;2023-07-28T12:23:22;23.29;71.46
62464;SHT31;48512;48.552;9.380;2023-07-28T12:25:49;23.18;71.00
62464;SHT31;48512;48.552;9.380;2023-07-28T12:28:21;23.32;72.25
62464;SHT31;48512;48.552;9.380;2023-07-28T12:30:47;23.30;74.29
62464;SHT31;48512;48.552;9.380;2023-07-28T12:33:15;23.26;76.80
62464;SHT31;48512;48.552;9.380;2023-07-28T12:35:41;23.32;77.03
62464;SHT31;48512;48.552;9.380;2023-07-28T12:38:07;23.22;76.31
62464;SHT31;48512;48.552;9.380;2023-07-28T12:40:34;23.12;75.23
62464;SHT31;48512;48.552;9.380;2023-07-28T12:43:02;23.11;76.68
62464;SHT31;48512;48.552;9.380;2023-07-28T12:45:28;23.21;72.89
62464;SHT31;48512;48.552;9.380;2023-07-28T12:47:55;22.92;76.19
62464;SHT31;48512;48.552;9.380;2023-07-28T12:50:22;23.11;74.72
62464;SHT31;48512;48.552;9.380;2023-07-28T12:52:49;23.19;76.65
62464;SHT31;48512;48.552;9.380;2023-07-28T12:55:17;23.18;73.50
62464;SHT31;48512;48.552;9.380;2023-07-28T12:57:44;23.10;73.25
62464;SHT31;48512;48.552;9.380;2023-07-28T13:00:11;23.18;72.16
62464;SHT31;48512;48.552;9.380;2023-07-28T13:02:47;23.15;71.34
62464;SHT31;48512;48.552;9.380;2023-07-28T13:05:13;23.21;74.41
62464;SHT31;48512;48.552;9.380;2023-07-28T13:07:41;23.23;73.54
62464;SHT31;48512;48.552;9.380;2023-07-28T13:10:10;23.38;74.82
62464;SHT31;48512;48.552;9.380;2023-07-28T13:12:37;23.41;75.08
62464;SHT31;48512;48.552;9.380;2023-07-28T13:15:04;23.30;76.84
62464;SHT31;48512;48.552;9.380;2023-07-28T13:17:31;23.43;76.04
62464;SHT31;48512;48.552;9.380;2023-07-28T13:19:57;23.30;76.23
62464;SHT31;48512;48.552;9.380;2023-07-28T13:22:24;23.12;75.16
62464;SHT31;48512;48.552;9.380;2023-07-28T13:24:50;23.05;74.19
62464;SHT31;48512;48.552;9.380;2023-07-28T13:27:16;23.22;73.82
62464;SHT31;48512;48.552;9.380;2023-07-28T13:29:42;23.01;72.43
62464;SHT31;48512;48.552;9.380;2023-07-28T13:32:22;22.91;71.57
62464;SHT31;48512;48.552;9.380;2023-07-28T13:34:48;22.94;71.56
62464;SHT31;48512;48.552;9.380;2023-07-28T13:37:14;23.08;71.25
62464;SHT31;48512;48.552;9.380;2023-07-28T13:39:42;23.25;71.83
62464;SHT31;48512;48.552;9.380;2023-07-28T13:42:09;23.32;70.47
62464;SHT31;48512;48.552;9.380;2023-07-28T13:44:36;23.37;70.09
62464;SHT31;48512;48.552;9.380;2023-07-28T13:47:03;23.30;70.75
62464;SHT31;48512;48.552;9.380;2023-07-28T13:49:31;23.02;75.94
62464;SHT31;48512;48.552;9.380;2023-07-28T13:52:02;23.01;75.37
62464;SHT31;48512;48.552;9.380;2023-07-28T13:54:28;22.97;74.96
62464;SHT31;48512;48.552;9.380;2023-07-28T13:56:54;23.04;75.14
62464;SHT31;48512;48.552;9.380;2023-07-28T13:59:21;22.92;77.37
62464;SHT31;48512;48.552;9.380;2023-07-28T14:01:48;22.81;76.67
62464;SHT31;48512;48.552;9.380;2023-07-28T14:04:15;22.91;75.92
62464;SHT31;48512;48.552;9.380;2023-07-28T14:06:41;22.70;78.65
62464;SHT31;48512;48.552;9.380;2023-07-28T14:09:07;22.52;79.73
62464;SHT31;48512;48.552;9.380;2023-07-28T14:11:33;22.15;81.11
62464;SHT31;48512;48.552;9.380;2023-07-28T14:13:59;22.28;80.83
62464;SHT31;48512;48.552;9.380;2023-07-28T14:16:26;22.18;80.86
62464;SHT31;48512;48.552;9.380;2023-07-28T14:18:53;22.04;81.21
62464;SHT31;48512;48.552;9.380;2023-07-28T14:21:19;21.85;82.09
62464;SHT31;48512;48.552;9.380;2023-07-28T14:23:45;21.91;80.80
62464;SHT31;48512;48.552;9.380;2023-07-28T14:26:11;21.84;80.07
62464;SHT31;48512;48.552;9.380;2023-07-28T14:28:37;21.87;80.52
62464;SHT31;48512;48.552;9.380;2023-07-28T14:31:04;22.12;80.41
62464;SHT31;48512;48.552;9.380;2023-07-28T14:33:30;22.47;79.63
62464;SHT31;48512;48.552;9.380;2023-07-28T14:35:56;22.12;79.69
62464;SHT31;48512;48.552;9.380;2023-07-28T14:38:22;21.99;80.21
62464;SHT31;48512;48.552;9.380;2023-07-28T14:40:48;21.89;80.89
62464;SHT31;48512;48.552;9.380;2023-07-28T14:43:16;21.87;81.92
62464;SHT31;48512;48.552;9.380;2023-07-28T14:45:42;21.87;81.71
62464;SHT31;48512;48.552;9.380;2023-07-28T14:48:08;21.85;81.66
62464;SHT31;48512;48.552;9.380;2023-07-28T14:50:35;21.77;81.17
62464;SHT31;48512;48.552;9.380;2023-07-28T14:53:01;21.81;81.39
62464;SHT31;48512;48.552;9.380;2023-07-28T14:55:27;21.89;80.59
62464;SHT31;48512;48.552;9.380;2023-07-28T14:57:53;21.91;79.74
62464;SHT31;48512;48.552;9.380;2023-07-28T15:00:19;22.47;79.13
62464;SHT31;48512;48.552;9.380;2023-07-28T15:02:45;23.29;76.74
62464;SHT31;48512;48.552;9.380;2023-07-28T15:05:11;23.96;76.20
62464;SHT31;48512;48.552;9.380;2023-07-28T15:07:38;24.38;72.95
62464;SHT31;48512;48.552;9.380;2023-07-28T15:10:04;24.47;69.71
62464;SHT31;48512;48.552;9.380;2023-07-28T15:12:30;24.10;65.71
62464;SHT31;48512;48.552;9.380;2023-07-28T15:14:57;23.83;68.98
62464;SHT31;48512;48.552;9.380;2023-07-28T15:17:23;23.80;68.88
62464;SHT31;48512;48.552;9.380;2023-07-28T15:19:49;24.08;66.95
62464;SHT31;48512;48.552;9.380;2023-07-28T15:22:15;24.01;66.75
62464;SHT31;48512;48.552;9.380;2023-07-28T15:24:41;23.78;66.85
62464;SHT31;48512;48.552;9.380;2023-07-28T15:27:08;23.55;67.78
62464;SHT31;48512;48.552;9.380;2023-07-28T15:29:35;23.87;67.79
62464;SHT31;48512;48.552;9.380;2023-07-28T15:32:01;24.13;66.47
62464;SHT31;48512;48.552;9.380;2023-07-28T15:34:27;24.05;67.52
62464;SHT31;48512;48.552;9.380;2023-07-28T15:36:54;24.07;68.53
62464;SHT31;48512;48.552;9.380;2023-07-28T15:39:20;24.10;68.07
62464;SHT31;48512;48.552;9.380;2023-07-28T15:41:46;23.98;68.00
62464;SHT31;48512;48.552;9.380;2023-07-28T15:44:12;23.86;68.70
62464;SHT31;48512;48.552;9.380;2023-07-28T15:46:39;23.80;68.71
62464;SHT31;48512;48.552;9.380;2023-07-28T15:49:05;23.88;68.46